DAL8079 KLAX-KBWI
Flight info
| Callsign | DAL8079 |
|---|---|
| Flight time | 4h 4m |
| Altitude | 41000 |
| Route | DOTSS2 CLEEE PKE DRK LOWBO MMB SGF FAM IIU ZIEBR SITTR CJAAE RAVNN8 |
| Aircraft | A359/H-SDE2E3GHIJ3J4J5LM1ORWXY/LB1D1 |
Departure
| Time | 2026-04-26 16:24 |
|---|---|
| Airport | Los Angeles International Airport (KLAX) |
Arrival
| Time | 2026-04-26 20:29 |
|---|---|
| Airport | Baltimore/Washington International Thurgood Marshall Airport (KBWI) |
| Time | Latitude | Longitude | Altitude | Speed | Heading |
|---|---|---|---|---|---|
| 2026-04-26 15:51 | 33.94124 | -118.40279 | 125 ft | 0 kts | 71° |
| 2026-04-26 16:09 | 33.94121 | -118.40293 | 132 ft | 3 kts | 91° |
| 2026-04-26 16:10 | 33.94121 | -118.40316 | 132 ft | 3 kts | 110° |
| 2026-04-26 16:10 | 33.94132 | -118.40336 | 132 ft | 3 kts | 151° |
| 2026-04-26 16:10 | 33.94135 | -118.40338 | 129 ft | 0 kts | 156° |
| 2026-04-26 16:14 | 33.94089 | -118.40322 | 128 ft | 15 kts | 168° |
| 2026-04-26 16:14 | 33.93977 | -118.40297 | 127 ft | 17 kts | 169° |
| 2026-04-26 16:14 | 33.93865 | -118.40153 | 125 ft | 15 kts | 84° |
| 2026-04-26 16:15 | 33.93876 | -118.40018 | 128 ft | 17 kts | 84° |
| 2026-04-26 16:15 | 33.93890 | -118.39868 | 132 ft | 19 kts | 83° |
| 2026-04-26 16:15 | 33.93908 | -118.39703 | 130 ft | 20 kts | 81° |
| 2026-04-26 16:16 | 33.93947 | -118.39337 | 128 ft | 23 kts | 84° |
| 2026-04-26 16:16 | 33.93966 | -118.39139 | 124 ft | 25 kts | 83° |
| 2026-04-26 16:16 | 33.93989 | -118.38928 | 132 ft | 26 kts | 82° |
| 2026-04-26 16:16 | 33.94011 | -118.38708 | 124 ft | 27 kts | 84° |
| 2026-04-26 16:17 | 33.94033 | -118.38488 | 130 ft | 21 kts | 82° |
| 2026-04-26 16:17 | 33.94035 | -118.38466 | 132 ft | 0 kts | 82° |
| 2026-04-26 16:17 | 33.94036 | -118.38459 | 125 ft | 7 kts | 82° |
| 2026-04-26 16:17 | 33.94042 | -118.38380 | 132 ft | 0 kts | 95° |
| 2026-04-26 16:22 | 33.94022 | -118.38321 | 132 ft | 0 kts | 134° |
| 2026-04-26 16:22 | 33.94000 | -118.38318 | 127 ft | 7 kts | 178° |
| 2026-04-26 16:22 | 33.93958 | -118.38347 | 132 ft | 7 kts | 237° |
| 2026-04-26 16:22 | 33.93952 | -118.38374 | 130 ft | 0 kts | 258° |
| 2026-04-26 16:23 | 33.93914 | -118.38642 | 132 ft | 70 kts | 262° |
| 2026-04-26 16:24 | 33.93832 | -118.39499 | 130 ft | 134 kts | 262° |
| 2026-04-26 16:24 | 33.93696 | -118.40826 | 300 ft | 175 kts | 257° |
| 2026-04-26 16:24 | 33.93513 | -118.42315 | 827 ft | 187 kts | 257° |
| 2026-04-26 16:24 | 33.93294 | -118.43898 | 1622 ft | 192 kts | 263° |
| 2026-04-26 16:25 | 33.93094 | -118.45508 | 2394 ft | 200 kts | 256° |
| 2026-04-26 16:25 | 33.92437 | -118.47061 | 2795 ft | 228 kts | 236° |
| 2026-04-26 16:25 | 33.91415 | -118.48659 | 3312 ft | 248 kts | 232° |
| 2026-04-26 16:25 | 33.90310 | -118.50287 | 4115 ft | 252 kts | 231° |
| 2026-04-26 16:26 | 33.89157 | -118.51900 | 4933 ft | 256 kts | 231° |
| 2026-04-26 16:26 | 33.88365 | -118.53002 | 5500 ft | 258 kts | 231° |
| 2026-04-26 16:26 | 33.86653 | -118.55026 | 6661 ft | 265 kts | 216° |
| 2026-04-26 16:26 | 33.84935 | -118.55859 | 7546 ft | 272 kts | 192° |
| 2026-04-26 16:27 | 33.83027 | -118.55774 | 8442 ft | 279 kts | 172° |
| 2026-04-26 16:27 | 33.81110 | -118.55266 | 9307 ft | 285 kts | 170° |
| 2026-04-26 16:27 | 33.79166 | -118.54708 | 10149 ft | 290 kts | 170° |
| 2026-04-26 16:27 | 33.77142 | -118.54143 | 10642 ft | 310 kts | 172° |
| 2026-04-26 16:28 | 33.74962 | -118.53556 | 10995 ft | 333 kts | 172° |
| 2026-04-26 16:28 | 33.72634 | -118.52861 | 11343 ft | 357 kts | 166° |
| 2026-04-26 16:28 | 33.70399 | -118.51410 | 11924 ft | 377 kts | 144° |
| 2026-04-26 16:28 | 33.68701 | -118.48956 | 12648 ft | 391 kts | 122° |
| 2026-04-26 16:29 | 33.67656 | -118.45900 | 13344 ft | 400 kts | 110° |
| 2026-04-26 16:29 | 33.66784 | -118.42702 | 14077 ft | 406 kts | 110° |
| 2026-04-26 16:29 | 33.65887 | -118.39467 | 14764 ft | 411 kts | 111° |
| 2026-04-26 16:29 | 33.64964 | -118.36193 | 15465 ft | 416 kts | 110° |
| 2026-04-26 16:30 | 33.64420 | -118.32804 | 16085 ft | 423 kts | 94° |
| 2026-04-26 16:30 | 33.64368 | -118.29248 | 16679 ft | 430 kts | 90° |
| 2026-04-26 16:30 | 33.64395 | -118.25641 | 17340 ft | 434 kts | 90° |
| 2026-04-26 16:30 | 33.64415 | -118.22001 | 17971 ft | 439 kts | 91° |
| 2026-04-26 16:31 | 33.64427 | -118.18317 | 18596 ft | 444 kts | 91° |
| 2026-04-26 16:31 | 33.64433 | -118.14583 | 19248 ft | 449 kts | 91° |
| 2026-04-26 16:31 | 33.64433 | -118.10822 | 19908 ft | 453 kts | 91° |
| 2026-04-26 16:31 | 33.64433 | -118.07026 | 20565 ft | 457 kts | 91° |
| 2026-04-26 16:32 | 33.64431 | -118.03190 | 21193 ft | 461 kts | 91° |
| 2026-04-26 16:32 | 33.64427 | -118.00629 | 21627 ft | 464 kts | 91° |
| 2026-04-26 16:32 | 33.64420 | -117.95409 | 22374 ft | 471 kts | 92° |
| 2026-04-26 16:32 | 33.64413 | -117.91461 | 22971 ft | 475 kts | 92° |
| 2026-04-26 16:33 | 33.64404 | -117.87473 | 23561 ft | 479 kts | 92° |
| 2026-04-26 16:33 | 33.64395 | -117.83466 | 24153 ft | 483 kts | 92° |
| 2026-04-26 16:33 | 33.64543 | -117.79423 | 24642 ft | 490 kts | 84° |
| 2026-04-26 16:33 | 33.65160 | -117.75366 | 25091 ft | 496 kts | 78° |
| 2026-04-26 16:34 | 33.65941 | -117.71302 | 25557 ft | 502 kts | 77° |
| 2026-04-26 16:34 | 33.66744 | -117.67196 | 26000 ft | 509 kts | 77° |
| 2026-04-26 16:34 | 33.67554 | -117.63038 | 26427 ft | 515 kts | 78° |
| 2026-04-26 16:34 | 33.68370 | -117.58822 | 26855 ft | 520 kts | 78° |
| 2026-04-26 16:35 | 33.69176 | -117.54627 | 27270 ft | 526 kts | 78° |
| 2026-04-26 16:35 | 33.70000 | -117.50322 | 27704 ft | 531 kts | 78° |
| 2026-04-26 16:35 | 33.70834 | -117.45970 | 28058 ft | 537 kts | 78° |
| 2026-04-26 16:35 | 33.71676 | -117.41566 | 28411 ft | 543 kts | 79° |
| 2026-04-26 16:36 | 33.72516 | -117.37121 | 28802 ft | 548 kts | 78° |
| 2026-04-26 16:36 | 33.73361 | -117.32638 | 29134 ft | 554 kts | 79° |
| 2026-04-26 16:36 | 33.74218 | -117.28103 | 29492 ft | 558 kts | 79° |
| 2026-04-26 16:36 | 33.74906 | -117.23503 | 29830 ft | 561 kts | 87° |
| 2026-04-26 16:37 | 33.75044 | -117.18815 | 30130 ft | 562 kts | 95° |
| 2026-04-26 16:37 | 33.74958 | -117.14097 | 30452 ft | 567 kts | 96° |
| 2026-04-26 16:37 | 33.74849 | -117.09346 | 30801 ft | 570 kts | 96° |
| 2026-04-26 16:37 | 33.74776 | -117.06187 | 31007 ft | 573 kts | 96° |
| 2026-04-26 16:38 | 33.74633 | -116.99752 | 31379 ft | 579 kts | 96° |
| 2026-04-26 16:38 | 33.74526 | -116.94904 | 31694 ft | 582 kts | 96° |
| 2026-04-26 16:38 | 33.74419 | -116.90025 | 31964 ft | 586 kts | 96° |
| 2026-04-26 16:38 | 33.74312 | -116.85123 | 32254 ft | 589 kts | 97° |
| 2026-04-26 16:39 | 33.74200 | -116.80188 | 32509 ft | 592 kts | 96° |
| 2026-04-26 16:39 | 33.74085 | -116.75235 | 32851 ft | 594 kts | 97° |
| 2026-04-26 16:39 | 33.73967 | -116.70268 | 33286 ft | 593 kts | 97° |
| 2026-04-26 16:39 | 33.73850 | -116.65329 | 33706 ft | 592 kts | 97° |
| 2026-04-26 16:40 | 33.73729 | -116.60443 | 34031 ft | 592 kts | 97° |
| 2026-04-26 16:40 | 33.73605 | -116.55503 | 34385 ft | 592 kts | 97° |
| 2026-04-26 16:40 | 33.73484 | -116.50558 | 34789 ft | 590 kts | 97° |
| 2026-04-26 16:40 | 33.73363 | -116.45623 | 35059 ft | 591 kts | 97° |
| 2026-04-26 16:41 | 33.73240 | -116.40702 | 35375 ft | 590 kts | 97° |
| 2026-04-26 16:41 | 33.73112 | -116.35763 | 35690 ft | 590 kts | 97° |
| 2026-04-26 16:41 | 33.72981 | -116.30842 | 36062 ft | 588 kts | 97° |
| 2026-04-26 16:41 | 33.72849 | -116.25949 | 36399 ft | 587 kts | 97° |
| 2026-04-26 16:42 | 33.72713 | -116.21051 | 36677 ft | 586 kts | 97° |
| 2026-04-26 16:42 | 33.72578 | -116.16163 | 36985 ft | 585 kts | 97° |
| 2026-04-26 16:42 | 33.72478 | -116.11294 | 37392 ft | 583 kts | 94° |
| 2026-04-26 16:42 | 33.72832 | -116.06441 | 37772 ft | 585 kts | 82° |
| 2026-04-26 16:43 | 33.73830 | -116.01716 | 38163 ft | 583 kts | 75° |
| 2026-04-26 16:43 | 33.75032 | -115.97064 | 38439 ft | 582 kts | 73° |
| 2026-04-26 16:43 | 33.76314 | -115.92448 | 38635 ft | 583 kts | 72° |
| 2026-04-26 16:43 | 33.77633 | -115.87837 | 38855 ft | 582 kts | 72° |
| 2026-04-26 16:44 | 33.78951 | -115.83242 | 39078 ft | 582 kts | 72° |
| 2026-04-26 16:44 | 33.80258 | -115.78644 | 39282 ft | 581 kts | 72° |
| 2026-04-26 16:44 | 33.81551 | -115.74041 | 39477 ft | 581 kts | 72° |
| 2026-04-26 16:44 | 33.82827 | -115.69442 | 39665 ft | 580 kts | 73° |
| 2026-04-26 16:45 | 33.84080 | -115.64893 | 39859 ft | 580 kts | 73° |
| 2026-04-26 16:45 | 33.85343 | -115.60280 | 40018 ft | 580 kts | 73° |
| 2026-04-26 16:45 | 33.86602 | -115.55675 | 40142 ft | 581 kts | 73° |
| 2026-04-26 16:45 | 33.87866 | -115.51048 | 40313 ft | 580 kts | 73° |
| 2026-04-26 16:46 | 33.89126 | -115.46430 | 40437 ft | 581 kts | 73° |
| 2026-04-26 16:46 | 33.90389 | -115.41797 | 40562 ft | 581 kts | 73° |
| 2026-04-26 16:46 | 33.91649 | -115.37168 | 40723 ft | 581 kts | 73° |
| 2026-04-26 16:46 | 33.92906 | -115.32547 | 40877 ft | 581 kts | 73° |
| 2026-04-26 16:47 | 33.95420 | -115.23279 | 40926 ft | 582 kts | 73° |
| 2026-04-26 16:47 | 33.97928 | -115.14000 | 40926 ft | 582 kts | 73° |
| 2026-04-26 16:48 | 34.00408 | -115.04791 | 40925 ft | 582 kts | 73° |
| 2026-04-26 16:48 | 34.02898 | -114.95518 | 40917 ft | 578 kts | 73° |
| 2026-04-26 16:49 | 34.05366 | -114.86293 | 40914 ft | 577 kts | 74° |
| 2026-04-26 16:49 | 34.07798 | -114.77070 | 40915 ft | 577 kts | 74° |
| 2026-04-26 16:50 | 34.09814 | -114.69400 | 40915 ft | 577 kts | 74° |
| 2026-04-26 16:50 | 34.12320 | -114.60192 | 40914 ft | 578 kts | 72° |
| 2026-04-26 16:51 | 34.14945 | -114.51015 | 40905 ft | 578 kts | 72° |
| 2026-04-26 16:51 | 34.17567 | -114.41824 | 40906 ft | 579 kts | 72° |
| 2026-04-26 16:52 | 34.19725 | -114.34173 | 40899 ft | 579 kts | 72° |
| 2026-04-26 16:52 | 34.22742 | -114.23388 | 40906 ft | 580 kts | 72° |
| 2026-04-26 16:53 | 34.25302 | -114.14201 | 40905 ft | 581 kts | 73° |
| 2026-04-26 16:53 | 34.27872 | -114.04943 | 40904 ft | 581 kts | 73° |
| 2026-04-26 16:54 | 34.30440 | -113.95668 | 40905 ft | 581 kts | 73° |
| 2026-04-26 16:54 | 34.33000 | -113.86398 | 40906 ft | 581 kts | 73° |
| 2026-04-26 16:55 | 34.35556 | -113.77107 | 40907 ft | 581 kts | 73° |
| 2026-04-26 16:55 | 34.38100 | -113.67831 | 40908 ft | 581 kts | 73° |
| 2026-04-26 16:56 | 34.41889 | -113.53954 | 40916 ft | 580 kts | 73° |
| 2026-04-26 16:57 | 34.44413 | -113.44668 | 40916 ft | 580 kts | 73° |
| 2026-04-26 16:57 | 34.48185 | -113.30740 | 40914 ft | 579 kts | 73° |
| 2026-04-26 16:58 | 34.50266 | -113.23021 | 40916 ft | 579 kts | 73° |
| 2026-04-26 16:59 | 34.54413 | -113.07575 | 40925 ft | 578 kts | 73° |
| 2026-04-26 17:00 | 34.59370 | -112.89001 | 40929 ft | 579 kts | 73° |
| 2026-04-26 17:00 | 34.63074 | -112.75035 | 40932 ft | 579 kts | 73° |
| 2026-04-26 17:01 | 34.65536 | -112.65712 | 40933 ft | 579 kts | 73° |
| 2026-04-26 17:01 | 34.67988 | -112.56395 | 40926 ft | 579 kts | 73° |
| 2026-04-26 17:02 | 34.70270 | -112.47005 | 40940 ft | 578 kts | 80° |
| 2026-04-26 17:02 | 34.71935 | -112.37440 | 40934 ft | 579 kts | 81° |
| 2026-04-26 17:03 | 34.73484 | -112.27839 | 40927 ft | 579 kts | 82° |
| 2026-04-26 17:03 | 34.75012 | -112.18212 | 40910 ft | 580 kts | 82° |
| 2026-04-26 17:04 | 34.76532 | -112.08654 | 40901 ft | 579 kts | 82° |
| 2026-04-26 17:04 | 34.78062 | -111.99031 | 40886 ft | 579 kts | 82° |
| 2026-04-26 17:05 | 34.79587 | -111.89398 | 40901 ft | 579 kts | 82° |
| 2026-04-26 17:05 | 34.81104 | -111.79772 | 40921 ft | 579 kts | 82° |
| 2026-04-26 17:06 | 34.82612 | -111.70150 | 40929 ft | 578 kts | 82° |
| 2026-04-26 17:06 | 34.84108 | -111.60539 | 40924 ft | 578 kts | 82° |
| 2026-04-26 17:07 | 34.85594 | -111.50932 | 40925 ft | 577 kts | 82° |
| 2026-04-26 17:07 | 34.87066 | -111.41374 | 40926 ft | 577 kts | 82° |
| 2026-04-26 17:08 | 34.88542 | -111.31764 | 40924 ft | 577 kts | 81° |
| 2026-04-26 17:08 | 34.90035 | -111.22166 | 40916 ft | 576 kts | 81° |
| 2026-04-26 17:09 | 34.91262 | -111.14189 | 40916 ft | 576 kts | 81° |
| 2026-04-26 17:09 | 34.92959 | -111.02979 | 40910 ft | 575 kts | 82° |
| 2026-04-26 17:10 | 34.94393 | -110.93399 | 40906 ft | 575 kts | 82° |
| 2026-04-26 17:10 | 34.95819 | -110.83817 | 40906 ft | 574 kts | 82° |
| 2026-04-26 17:11 | 34.97237 | -110.74243 | 40894 ft | 573 kts | 82° |
| 2026-04-26 17:11 | 34.98641 | -110.64714 | 40897 ft | 573 kts | 82° |
| 2026-04-26 17:12 | 35.00766 | -110.50362 | 40893 ft | 573 kts | 81° |
| 2026-04-26 17:13 | 35.02876 | -110.36012 | 40906 ft | 573 kts | 81° |
| 2026-04-26 17:14 | 35.04942 | -110.21652 | 40915 ft | 572 kts | 82° |
| 2026-04-26 17:14 | 35.06975 | -110.07377 | 40918 ft | 572 kts | 82° |
| 2026-04-26 17:15 | 35.09002 | -109.93029 | 40937 ft | 571 kts | 82° |
| 2026-04-26 17:16 | 35.10347 | -109.83445 | 40926 ft | 572 kts | 82° |
| 2026-04-26 17:16 | 35.11682 | -109.73868 | 40926 ft | 572 kts | 82° |
| 2026-04-26 17:17 | 35.13010 | -109.64283 | 40923 ft | 572 kts | 82° |
| 2026-04-26 17:17 | 35.14330 | -109.54699 | 40925 ft | 572 kts | 82° |
| 2026-04-26 17:18 | 35.15643 | -109.45110 | 40935 ft | 572 kts | 82° |
| 2026-04-26 17:18 | 35.16948 | -109.35525 | 40934 ft | 572 kts | 82° |
| 2026-04-26 17:19 | 35.18886 | -109.21178 | 40933 ft | 573 kts | 82° |
| 2026-04-26 17:19 | 35.20181 | -109.11509 | 40935 ft | 573 kts | 82° |
| 2026-04-26 17:20 | 35.21247 | -109.03513 | 40939 ft | 573 kts | 82° |
| 2026-04-26 17:20 | 35.22737 | -108.92261 | 40944 ft | 574 kts | 82° |
| 2026-04-26 17:21 | 35.24003 | -108.82630 | 40944 ft | 574 kts | 83° |
| 2026-04-26 17:21 | 35.25257 | -108.73034 | 40943 ft | 575 kts | 83° |
| 2026-04-26 17:22 | 35.26513 | -108.63366 | 40933 ft | 575 kts | 83° |
| 2026-04-26 17:22 | 35.27761 | -108.53694 | 40935 ft | 575 kts | 83° |
| 2026-04-26 17:23 | 35.29002 | -108.44015 | 40941 ft | 575 kts | 83° |
| 2026-04-26 17:23 | 35.30233 | -108.34342 | 40943 ft | 575 kts | 83° |
| 2026-04-26 17:24 | 35.31458 | -108.24658 | 40943 ft | 576 kts | 83° |
| 2026-04-26 17:24 | 35.32677 | -108.14958 | 40945 ft | 576 kts | 83° |
| 2026-04-26 17:25 | 35.33888 | -108.05259 | 40954 ft | 576 kts | 83° |
| 2026-04-26 17:25 | 35.35091 | -107.95559 | 40953 ft | 576 kts | 83° |
| 2026-04-26 17:26 | 35.36286 | -107.85851 | 40953 ft | 576 kts | 83° |
| 2026-04-26 17:26 | 35.37469 | -107.76184 | 40952 ft | 577 kts | 83° |
| 2026-04-26 17:27 | 35.38649 | -107.66472 | 40951 ft | 577 kts | 83° |
| 2026-04-26 17:27 | 35.39823 | -107.56742 | 40944 ft | 577 kts | 84° |
| 2026-04-26 17:28 | 35.40989 | -107.47009 | 40942 ft | 577 kts | 83° |
| 2026-04-26 17:28 | 35.42147 | -107.37279 | 40943 ft | 577 kts | 83° |
| 2026-04-26 17:29 | 35.42975 | -107.30767 | 40943 ft | 577 kts | 81° |
| 2026-04-26 17:29 | 35.45020 | -107.17896 | 40935 ft | 578 kts | 80° |
| 2026-04-26 17:30 | 35.46579 | -107.08234 | 40927 ft | 577 kts | 80° |
| 2026-04-26 17:30 | 35.48081 | -106.98558 | 40923 ft | 577 kts | 81° |
| 2026-04-26 17:31 | 35.49540 | -106.88950 | 40925 ft | 576 kts | 81° |
| 2026-04-26 17:31 | 35.50997 | -106.79282 | 40925 ft | 576 kts | 81° |
| 2026-04-26 17:32 | 35.52448 | -106.69621 | 40916 ft | 575 kts | 81° |
| 2026-04-26 17:32 | 35.53893 | -106.59959 | 40915 ft | 575 kts | 81° |
| 2026-04-26 17:33 | 35.55328 | -106.50309 | 40925 ft | 574 kts | 81° |
| 2026-04-26 17:34 | 35.57459 | -106.35872 | 40934 ft | 574 kts | 81° |
| 2026-04-26 17:34 | 35.58872 | -106.26226 | 40941 ft | 574 kts | 81° |
| 2026-04-26 17:35 | 35.60276 | -106.16590 | 40943 ft | 573 kts | 81° |
| 2026-04-26 17:35 | 35.61673 | -106.06946 | 40943 ft | 572 kts | 81° |
| 2026-04-26 17:36 | 35.63061 | -105.97308 | 40944 ft | 572 kts | 81° |
| 2026-04-26 17:36 | 35.64210 | -105.89288 | 40944 ft | 572 kts | 81° |
| 2026-04-26 17:37 | 35.65805 | -105.78084 | 40940 ft | 572 kts | 81° |
| 2026-04-26 17:37 | 35.67171 | -105.68430 | 40946 ft | 573 kts | 81° |
| 2026-04-26 17:38 | 35.68983 | -105.55523 | 40944 ft | 572 kts | 81° |
| 2026-04-26 17:38 | 35.70330 | -105.45870 | 40942 ft | 572 kts | 81° |
| 2026-04-26 17:39 | 35.71662 | -105.36262 | 40943 ft | 573 kts | 82° |
| 2026-04-26 17:39 | 35.72994 | -105.26595 | 40943 ft | 573 kts | 81° |
| 2026-04-26 17:40 | 35.74097 | -105.18548 | 40943 ft | 573 kts | 81° |
| 2026-04-26 17:40 | 35.75637 | -105.07242 | 40943 ft | 573 kts | 82° |
| 2026-04-26 17:41 | 35.76946 | -104.97567 | 40944 ft | 573 kts | 82° |
| 2026-04-26 17:41 | 35.78247 | -104.87884 | 40941 ft | 573 kts | 81° |
| 2026-04-26 17:42 | 35.79542 | -104.78191 | 40934 ft | 573 kts | 82° |
| 2026-04-26 17:42 | 35.80819 | -104.68575 | 40934 ft | 572 kts | 82° |
| 2026-04-26 17:43 | 35.82095 | -104.58898 | 40933 ft | 572 kts | 82° |
| 2026-04-26 17:43 | 35.83364 | -104.49219 | 40925 ft | 572 kts | 82° |
| 2026-04-26 17:44 | 35.84624 | -104.39535 | 40907 ft | 572 kts | 82° |
| 2026-04-26 17:44 | 35.85877 | -104.29848 | 40899 ft | 572 kts | 82° |
| 2026-04-26 17:45 | 35.87121 | -104.20174 | 40896 ft | 572 kts | 82° |
| 2026-04-26 17:45 | 35.88360 | -104.10473 | 40900 ft | 572 kts | 82° |
| 2026-04-26 17:46 | 35.89581 | -104.00846 | 40886 ft | 572 kts | 82° |
| 2026-04-26 17:46 | 35.90801 | -103.91158 | 40864 ft | 571 kts | 82° |
| 2026-04-26 17:47 | 35.91817 | -103.83046 | 40866 ft | 572 kts | 82° |
| 2026-04-26 17:47 | 35.93219 | -103.71776 | 40872 ft | 571 kts | 82° |
| 2026-04-26 17:48 | 35.94416 | -103.62078 | 40884 ft | 571 kts | 82° |
| 2026-04-26 17:48 | 35.95604 | -103.52388 | 40879 ft | 571 kts | 82° |
| 2026-04-26 17:49 | 35.96784 | -103.42702 | 40893 ft | 571 kts | 82° |
| 2026-04-26 17:49 | 35.97956 | -103.33009 | 40888 ft | 571 kts | 82° |
| 2026-04-26 17:50 | 35.99120 | -103.23320 | 40891 ft | 571 kts | 82° |
| 2026-04-26 17:50 | 36.00277 | -103.13617 | 40889 ft | 570 kts | 82° |
| 2026-04-26 17:51 | 36.01423 | -103.03945 | 40900 ft | 568 kts | 82° |
| 2026-04-26 17:51 | 36.02557 | -102.94298 | 40893 ft | 567 kts | 82° |
| 2026-04-26 17:52 | 36.03674 | -102.84736 | 40896 ft | 566 kts | 82° |
| 2026-04-26 17:52 | 36.04790 | -102.75108 | 40908 ft | 565 kts | 82° |
| 2026-04-26 17:53 | 36.05895 | -102.65501 | 40906 ft | 565 kts | 82° |
| 2026-04-26 17:54 | 36.07541 | -102.51076 | 40908 ft | 565 kts | 82° |
| 2026-04-26 17:54 | 36.08627 | -102.41466 | 40907 ft | 565 kts | 82° |
| 2026-04-26 17:55 | 36.09706 | -102.31848 | 40906 ft | 564 kts | 82° |
| 2026-04-26 17:55 | 36.10777 | -102.22234 | 40896 ft | 564 kts | 82° |
| 2026-04-26 17:56 | 36.11839 | -102.12623 | 40896 ft | 564 kts | 82° |
| 2026-04-26 17:57 | 36.13941 | -101.93396 | 40887 ft | 564 kts | 82° |
| 2026-04-26 17:57 | 36.14979 | -101.83791 | 40890 ft | 564 kts | 82° |
| 2026-04-26 17:58 | 36.17029 | -101.64602 | 40899 ft | 564 kts | 83° |
| 2026-04-26 17:59 | 36.18549 | -101.50169 | 40898 ft | 564 kts | 83° |
| 2026-04-26 17:59 | 36.19554 | -101.40539 | 40891 ft | 563 kts | 83° |
| 2026-04-26 18:00 | 36.20550 | -101.30918 | 40876 ft | 563 kts | 83° |
| 2026-04-26 18:00 | 36.21537 | -101.21308 | 40881 ft | 562 kts | 83° |
| 2026-04-26 18:01 | 36.22515 | -101.11701 | 40884 ft | 562 kts | 83° |
| 2026-04-26 18:01 | 36.23485 | -101.02103 | 40881 ft | 561 kts | 83° |
| 2026-04-26 18:02 | 36.24284 | -100.94133 | 40876 ft | 561 kts | 83° |
| 2026-04-26 18:02 | 36.25399 | -100.82918 | 40862 ft | 561 kts | 83° |
| 2026-04-26 18:03 | 36.26339 | -100.73383 | 40872 ft | 560 kts | 83° |
| 2026-04-26 18:03 | 36.27276 | -100.63803 | 40877 ft | 560 kts | 83° |
| 2026-04-26 18:04 | 36.28205 | -100.54216 | 40874 ft | 560 kts | 83° |
| 2026-04-26 18:05 | 36.29584 | -100.39833 | 40856 ft | 560 kts | 83° |
| 2026-04-26 18:05 | 36.30494 | -100.30245 | 40864 ft | 560 kts | 83° |
| 2026-04-26 18:06 | 36.31396 | -100.20651 | 40868 ft | 559 kts | 83° |
| 2026-04-26 18:06 | 36.32290 | -100.11070 | 40877 ft | 559 kts | 83° |
| 2026-04-26 18:07 | 36.33175 | -100.01487 | 40874 ft | 559 kts | 83° |
| 2026-04-26 18:07 | 36.34054 | -99.91890 | 40872 ft | 559 kts | 83° |
| 2026-04-26 18:08 | 36.35431 | -99.82485 | 40871 ft | 558 kts | 77° |
| 2026-04-26 18:08 | 36.37120 | -99.73079 | 40873 ft | 558 kts | 76° |
| 2026-04-26 18:09 | 36.38848 | -99.63700 | 40876 ft | 557 kts | 76° |
| 2026-04-26 18:09 | 36.40564 | -99.54324 | 40885 ft | 557 kts | 76° |
| 2026-04-26 18:10 | 36.42263 | -99.44946 | 40899 ft | 556 kts | 76° |
| 2026-04-26 18:10 | 36.43947 | -99.35586 | 40899 ft | 555 kts | 76° |
| 2026-04-26 18:11 | 36.45622 | -99.26231 | 40887 ft | 554 kts | 76° |
| 2026-04-26 18:11 | 36.47277 | -99.16940 | 40883 ft | 554 kts | 76° |
| 2026-04-26 18:12 | 36.48933 | -99.07603 | 40860 ft | 552 kts | 76° |
| 2026-04-26 18:12 | 36.50580 | -98.98277 | 40860 ft | 551 kts | 77° |
| 2026-04-26 18:13 | 36.52213 | -98.88979 | 40844 ft | 550 kts | 77° |
| 2026-04-26 18:13 | 36.53837 | -98.79686 | 40835 ft | 550 kts | 77° |
| 2026-04-26 18:14 | 36.55453 | -98.70397 | 40831 ft | 548 kts | 77° |
| 2026-04-26 18:14 | 36.57060 | -98.61116 | 40832 ft | 548 kts | 77° |
| 2026-04-26 18:15 | 36.58655 | -98.51854 | 40823 ft | 547 kts | 77° |
| 2026-04-26 18:15 | 36.60232 | -98.42656 | 40817 ft | 546 kts | 77° |
| 2026-04-26 18:16 | 36.61818 | -98.33359 | 40805 ft | 553 kts | 76° |
| 2026-04-26 18:16 | 36.64208 | -98.19263 | 40795 ft | 555 kts | 77° |
| 2026-04-26 18:17 | 36.65791 | -98.09867 | 40795 ft | 554 kts | 77° |
| 2026-04-26 18:17 | 36.67365 | -98.00474 | 40785 ft | 554 kts | 77° |
| 2026-04-26 18:18 | 36.68929 | -97.91091 | 40791 ft | 552 kts | 77° |
| 2026-04-26 18:18 | 36.70483 | -97.81722 | 40787 ft | 551 kts | 77° |
| 2026-04-26 18:19 | 36.72028 | -97.72361 | 40791 ft | 551 kts | 77° |
| 2026-04-26 18:19 | 36.73566 | -97.62996 | 40795 ft | 550 kts | 77° |
| 2026-04-26 18:20 | 36.75093 | -97.53651 | 40800 ft | 550 kts | 77° |
| 2026-04-26 18:20 | 36.76098 | -97.47472 | 40804 ft | 550 kts | 77° |
| 2026-04-26 18:21 | 36.78111 | -97.35026 | 40804 ft | 550 kts | 77° |
| 2026-04-26 18:21 | 36.79616 | -97.25671 | 40804 ft | 549 kts | 78° |
| 2026-04-26 18:22 | 36.81109 | -97.16336 | 40795 ft | 548 kts | 78° |
| 2026-04-26 18:22 | 36.82593 | -97.07008 | 40791 ft | 548 kts | 78° |
| 2026-04-26 18:23 | 36.84070 | -96.97680 | 40785 ft | 548 kts | 78° |
| 2026-04-26 18:23 | 36.85539 | -96.88348 | 40795 ft | 547 kts | 78° |
| 2026-04-26 18:24 | 36.86763 | -96.80533 | 40804 ft | 547 kts | 78° |
| 2026-04-26 18:24 | 36.88210 | -96.71254 | 40810 ft | 547 kts | 78° |
| 2026-04-26 18:25 | 36.89656 | -96.61927 | 40819 ft | 547 kts | 78° |
| 2026-04-26 18:25 | 36.91095 | -96.52593 | 40828 ft | 546 kts | 78° |
| 2026-04-26 18:26 | 36.92526 | -96.43261 | 40837 ft | 546 kts | 78° |
| 2026-04-26 18:26 | 36.93948 | -96.33944 | 40846 ft | 546 kts | 78° |
| 2026-04-26 18:27 | 36.95363 | -96.24617 | 40851 ft | 546 kts | 78° |
| 2026-04-26 18:27 | 36.96761 | -96.15348 | 40860 ft | 546 kts | 78° |
| 2026-04-26 18:28 | 36.98161 | -96.06018 | 40861 ft | 546 kts | 79° |
| 2026-04-26 18:28 | 36.99553 | -95.96683 | 40861 ft | 546 kts | 78° |
| 2026-04-26 18:29 | 37.00938 | -95.87352 | 40852 ft | 545 kts | 79° |
| 2026-04-26 18:29 | 37.02310 | -95.78051 | 40850 ft | 544 kts | 79° |
| 2026-04-26 18:30 | 37.03676 | -95.68737 | 40824 ft | 544 kts | 79° |
| 2026-04-26 18:30 | 37.05035 | -95.59418 | 40822 ft | 544 kts | 79° |
| 2026-04-26 18:31 | 37.06384 | -95.50113 | 40823 ft | 544 kts | 79° |
| 2026-04-26 18:31 | 37.07730 | -95.40783 | 40823 ft | 544 kts | 79° |
| 2026-04-26 18:32 | 37.09068 | -95.31445 | 40832 ft | 544 kts | 79° |
| 2026-04-26 18:32 | 37.10397 | -95.22118 | 40838 ft | 544 kts | 79° |
| 2026-04-26 18:33 | 37.11720 | -95.12784 | 40841 ft | 544 kts | 79° |
| 2026-04-26 18:33 | 37.13035 | -95.03450 | 40841 ft | 544 kts | 79° |
| 2026-04-26 18:34 | 37.14343 | -94.94107 | 40850 ft | 544 kts | 79° |
| 2026-04-26 18:34 | 37.15642 | -94.84775 | 40851 ft | 544 kts | 79° |
| 2026-04-26 18:35 | 37.16925 | -94.75495 | 40859 ft | 544 kts | 79° |
| 2026-04-26 18:35 | 37.18211 | -94.66146 | 40862 ft | 544 kts | 79° |
| 2026-04-26 18:36 | 37.19488 | -94.56802 | 40877 ft | 543 kts | 79° |
| 2026-04-26 18:36 | 37.20759 | -94.47448 | 40881 ft | 543 kts | 79° |
| 2026-04-26 18:37 | 37.22022 | -94.38098 | 40887 ft | 543 kts | 79° |
| 2026-04-26 18:37 | 37.23277 | -94.28746 | 40883 ft | 543 kts | 79° |
| 2026-04-26 18:38 | 37.24524 | -94.19394 | 40882 ft | 543 kts | 79° |
| 2026-04-26 18:38 | 37.25754 | -94.10113 | 40876 ft | 542 kts | 79° |
| 2026-04-26 18:39 | 37.26986 | -94.00764 | 40889 ft | 542 kts | 79° |
| 2026-04-26 18:39 | 37.28209 | -93.91413 | 40893 ft | 543 kts | 79° |
| 2026-04-26 18:40 | 37.29426 | -93.82061 | 40888 ft | 543 kts | 79° |
| 2026-04-26 18:40 | 37.30638 | -93.72683 | 40898 ft | 543 kts | 79° |
| 2026-04-26 18:41 | 37.31840 | -93.63317 | 40894 ft | 542 kts | 79° |
| 2026-04-26 18:41 | 37.33032 | -93.53972 | 40901 ft | 542 kts | 79° |
| 2026-04-26 18:42 | 37.34219 | -93.44612 | 40901 ft | 542 kts | 79° |
| 2026-04-26 18:42 | 37.35397 | -93.35252 | 40893 ft | 542 kts | 79° |
| 2026-04-26 18:43 | 37.36538 | -93.25878 | 40901 ft | 542 kts | 80° |
| 2026-04-26 18:43 | 37.37594 | -93.16551 | 40908 ft | 543 kts | 80° |
| 2026-04-26 18:44 | 37.38648 | -93.07150 | 40906 ft | 543 kts | 80° |
| 2026-04-26 18:44 | 37.39706 | -92.97749 | 40915 ft | 542 kts | 80° |
| 2026-04-26 18:45 | 37.40761 | -92.88368 | 40915 ft | 542 kts | 80° |
| 2026-04-26 18:45 | 37.41810 | -92.78982 | 40925 ft | 542 kts | 80° |
| 2026-04-26 18:46 | 37.42852 | -92.69573 | 40933 ft | 542 kts | 80° |
| 2026-04-26 18:46 | 37.43888 | -92.60156 | 40935 ft | 543 kts | 80° |
| 2026-04-26 18:47 | 37.44914 | -92.50749 | 40934 ft | 542 kts | 80° |
| 2026-04-26 18:47 | 37.45933 | -92.41341 | 40934 ft | 542 kts | 80° |
| 2026-04-26 18:48 | 37.46946 | -92.31919 | 40934 ft | 542 kts | 80° |
| 2026-04-26 18:48 | 37.47944 | -92.22563 | 40942 ft | 542 kts | 80° |
| 2026-04-26 18:49 | 37.48939 | -92.13161 | 40944 ft | 542 kts | 80° |
| 2026-04-26 18:49 | 37.49930 | -92.03733 | 40943 ft | 542 kts | 80° |
| 2026-04-26 18:50 | 37.50911 | -91.94309 | 40943 ft | 542 kts | 80° |
| 2026-04-26 18:50 | 37.51886 | -91.84886 | 40948 ft | 542 kts | 80° |
| 2026-04-26 18:51 | 37.52847 | -91.75515 | 40953 ft | 542 kts | 80° |
| 2026-04-26 18:51 | 37.53805 | -91.66098 | 40953 ft | 542 kts | 80° |
| 2026-04-26 18:52 | 37.54755 | -91.56679 | 40952 ft | 542 kts | 80° |
| 2026-04-26 18:52 | 37.55699 | -91.47254 | 40964 ft | 542 kts | 80° |
| 2026-04-26 18:53 | 37.56635 | -91.37830 | 40979 ft | 542 kts | 80° |
| 2026-04-26 18:53 | 37.57563 | -91.28408 | 40980 ft | 541 kts | 80° |
| 2026-04-26 18:54 | 37.58483 | -91.18982 | 40980 ft | 541 kts | 80° |
| 2026-04-26 18:54 | 37.59390 | -91.09613 | 40988 ft | 541 kts | 80° |
| 2026-04-26 18:55 | 37.60294 | -91.00194 | 40992 ft | 541 kts | 80° |
| 2026-04-26 18:55 | 37.61191 | -90.90776 | 41001 ft | 540 kts | 80° |
| 2026-04-26 18:56 | 37.62079 | -90.81363 | 41000 ft | 540 kts | 80° |
| 2026-04-26 18:56 | 37.62959 | -90.71959 | 40999 ft | 539 kts | 80° |
| 2026-04-26 18:57 | 37.63683 | -90.64162 | 40997 ft | 539 kts | 80° |
| 2026-04-26 18:57 | 37.64695 | -90.53165 | 41008 ft | 539 kts | 80° |
| 2026-04-26 18:58 | 37.65551 | -90.43770 | 41008 ft | 539 kts | 80° |
| 2026-04-26 18:58 | 37.66400 | -90.34375 | 41009 ft | 539 kts | 80° |
| 2026-04-26 18:59 | 37.67240 | -90.24981 | 41009 ft | 539 kts | 80° |
| 2026-04-26 18:59 | 37.68167 | -90.15607 | 40998 ft | 537 kts | 78° |
| 2026-04-26 19:00 | 37.69242 | -90.06316 | 40981 ft | 538 kts | 78° |
| 2026-04-26 19:00 | 37.70318 | -89.96967 | 40975 ft | 538 kts | 78° |
| 2026-04-26 19:01 | 37.71358 | -89.87623 | 40972 ft | 537 kts | 78° |
| 2026-04-26 19:01 | 37.72378 | -89.78273 | 40972 ft | 537 kts | 79° |
| 2026-04-26 19:02 | 37.73390 | -89.68912 | 40975 ft | 537 kts | 79° |
| 2026-04-26 19:02 | 37.74227 | -89.61121 | 40971 ft | 537 kts | 79° |
| 2026-04-26 19:03 | 37.75387 | -89.50248 | 40980 ft | 537 kts | 79° |
| 2026-04-26 19:03 | 37.76378 | -89.40886 | 40989 ft | 537 kts | 79° |
| 2026-04-26 19:04 | 37.77360 | -89.31538 | 40990 ft | 537 kts | 79° |
| 2026-04-26 19:04 | 37.78336 | -89.22164 | 40989 ft | 537 kts | 79° |
| 2026-04-26 19:05 | 37.79784 | -89.08133 | 40996 ft | 536 kts | 79° |
| 2026-04-26 19:06 | 37.80740 | -88.98770 | 40998 ft | 536 kts | 79° |
| 2026-04-26 19:06 | 37.81682 | -88.89472 | 40999 ft | 536 kts | 79° |
| 2026-04-26 19:07 | 37.82621 | -88.80129 | 41004 ft | 536 kts | 79° |
| 2026-04-26 19:07 | 37.83553 | -88.70784 | 41009 ft | 535 kts | 79° |
| 2026-04-26 19:08 | 37.84477 | -88.61443 | 41029 ft | 535 kts | 79° |
| 2026-04-26 19:08 | 37.85393 | -88.52103 | 41024 ft | 535 kts | 79° |
| 2026-04-26 19:09 | 37.86147 | -88.44349 | 41013 ft | 535 kts | 79° |
| 2026-04-26 19:09 | 37.87049 | -88.35009 | 41012 ft | 534 kts | 79° |
| 2026-04-26 19:10 | 37.87942 | -88.25681 | 41017 ft | 533 kts | 79° |
| 2026-04-26 19:10 | 37.88826 | -88.16376 | 41015 ft | 533 kts | 79° |
| 2026-04-26 19:11 | 37.89707 | -88.07016 | 41019 ft | 533 kts | 79° |
| 2026-04-26 19:11 | 37.90577 | -87.97696 | 41013 ft | 533 kts | 79° |
| 2026-04-26 19:12 | 37.91441 | -87.88365 | 41013 ft | 533 kts | 79° |
| 2026-04-26 19:12 | 37.92293 | -87.79076 | 41014 ft | 534 kts | 79° |
| 2026-04-26 19:13 | 37.93142 | -87.69733 | 41014 ft | 534 kts | 79° |
| 2026-04-26 19:13 | 37.93984 | -87.60387 | 41028 ft | 534 kts | 79° |
| 2026-04-26 19:14 | 37.94818 | -87.51045 | 41023 ft | 533 kts | 79° |
| 2026-04-26 19:14 | 37.95644 | -87.41704 | 41031 ft | 533 kts | 79° |
| 2026-04-26 19:15 | 37.96464 | -87.32356 | 41032 ft | 532 kts | 79° |
| 2026-04-26 19:15 | 37.97273 | -87.23038 | 41033 ft | 532 kts | 79° |
| 2026-04-26 19:16 | 37.98069 | -87.13783 | 41032 ft | 531 kts | 79° |
| 2026-04-26 19:16 | 37.98862 | -87.04481 | 41039 ft | 530 kts | 79° |
| 2026-04-26 19:17 | 37.99648 | -86.95170 | 41048 ft | 529 kts | 79° |
| 2026-04-26 19:17 | 38.00425 | -86.85881 | 41046 ft | 528 kts | 80° |
| 2026-04-26 19:18 | 38.01184 | -86.76702 | 41046 ft | 526 kts | 80° |
| 2026-04-26 19:18 | 38.01939 | -86.67501 | 41041 ft | 525 kts | 80° |
| 2026-04-26 19:19 | 38.02688 | -86.58278 | 41044 ft | 524 kts | 80° |
| 2026-04-26 19:19 | 38.03428 | -86.49083 | 41049 ft | 523 kts | 80° |
| 2026-04-26 19:20 | 38.04160 | -86.39902 | 41047 ft | 523 kts | 80° |
| 2026-04-26 19:20 | 38.04879 | -86.30774 | 41055 ft | 523 kts | 80° |
| 2026-04-26 19:21 | 38.05596 | -86.21592 | 41054 ft | 523 kts | 80° |
| 2026-04-26 19:21 | 38.06306 | -86.12409 | 41055 ft | 523 kts | 80° |
| 2026-04-26 19:22 | 38.07008 | -86.03233 | 41054 ft | 523 kts | 80° |
| 2026-04-26 19:22 | 38.07704 | -85.94036 | 41059 ft | 523 kts | 80° |
| 2026-04-26 19:23 | 38.08389 | -85.84898 | 41068 ft | 523 kts | 80° |
| 2026-04-26 19:23 | 38.09070 | -85.75704 | 41076 ft | 523 kts | 80° |
| 2026-04-26 19:24 | 38.09744 | -85.66514 | 41078 ft | 522 kts | 81° |
| 2026-04-26 19:24 | 38.09570 | -85.52651 | 41075 ft | 529 kts | 96° |
| 2026-04-26 19:25 | 38.08482 | -85.44994 | 41069 ft | 530 kts | 98° |
| 2026-04-26 19:25 | 38.06783 | -85.34283 | 41070 ft | 529 kts | 99° |
| 2026-04-26 19:26 | 38.05324 | -85.25143 | 41073 ft | 528 kts | 99° |
| 2026-04-26 19:26 | 38.03892 | -85.16082 | 41080 ft | 527 kts | 99° |
| 2026-04-26 19:27 | 38.02453 | -85.06965 | 41084 ft | 526 kts | 99° |
| 2026-04-26 19:27 | 38.01011 | -84.97870 | 41087 ft | 525 kts | 99° |
| 2026-04-26 19:28 | 37.99566 | -84.88805 | 41087 ft | 524 kts | 99° |
| 2026-04-26 19:28 | 37.98107 | -84.79710 | 41089 ft | 526 kts | 99° |
| 2026-04-26 19:29 | 37.96642 | -84.70617 | 41092 ft | 526 kts | 99° |
| 2026-04-26 19:29 | 37.95170 | -84.61541 | 41100 ft | 525 kts | 99° |
| 2026-04-26 19:30 | 37.93695 | -84.52484 | 41097 ft | 524 kts | 99° |
| 2026-04-26 19:30 | 37.92466 | -84.44974 | 41093 ft | 524 kts | 99° |
| 2026-04-26 19:31 | 37.90732 | -84.34430 | 41088 ft | 523 kts | 100° |
| 2026-04-26 19:31 | 37.89242 | -84.25420 | 41097 ft | 522 kts | 100° |
| 2026-04-26 19:32 | 37.87757 | -84.16487 | 41099 ft | 522 kts | 100° |
| 2026-04-26 19:32 | 37.86257 | -84.07504 | 41089 ft | 521 kts | 100° |
| 2026-04-26 19:33 | 37.84751 | -83.98532 | 41087 ft | 521 kts | 100° |
| 2026-04-26 19:33 | 37.83239 | -83.89565 | 41091 ft | 521 kts | 100° |
| 2026-04-26 19:34 | 37.81709 | -83.80604 | 41097 ft | 521 kts | 101° |
| 2026-04-26 19:34 | 37.80173 | -83.71661 | 41092 ft | 521 kts | 101° |
| 2026-04-26 19:35 | 37.78649 | -83.62780 | 41087 ft | 521 kts | 101° |
| 2026-04-26 19:35 | 37.77095 | -83.53749 | 41082 ft | 522 kts | 101° |
| 2026-04-26 19:36 | 37.75808 | -83.46293 | 41085 ft | 522 kts | 101° |
| 2026-04-26 19:36 | 37.74000 | -83.35870 | 41075 ft | 523 kts | 101° |
| 2026-04-26 19:37 | 37.72432 | -83.26885 | 41072 ft | 523 kts | 101° |
| 2026-04-26 19:37 | 37.70855 | -83.17891 | 41074 ft | 523 kts | 101° |
| 2026-04-26 19:38 | 37.69273 | -83.08910 | 41080 ft | 523 kts | 101° |
| 2026-04-26 19:38 | 37.67694 | -82.99988 | 41079 ft | 523 kts | 101° |
| 2026-04-26 19:39 | 37.66100 | -82.91023 | 41082 ft | 523 kts | 101° |
| 2026-04-26 19:39 | 37.64502 | -82.82075 | 41095 ft | 523 kts | 101° |
| 2026-04-26 19:40 | 37.63682 | -82.73017 | 41090 ft | 518 kts | 85° |
| 2026-04-26 19:40 | 37.64317 | -82.63965 | 41088 ft | 517 kts | 81° |
| 2026-04-26 19:41 | 37.65194 | -82.55011 | 41088 ft | 517 kts | 80° |
| 2026-04-26 19:41 | 37.65951 | -82.47473 | 41089 ft | 517 kts | 81° |
| 2026-04-26 19:42 | 37.66965 | -82.37006 | 41088 ft | 517 kts | 81° |
| 2026-04-26 19:42 | 37.67812 | -82.28001 | 41088 ft | 516 kts | 81° |
| 2026-04-26 19:43 | 37.68647 | -82.19002 | 41086 ft | 516 kts | 81° |
| 2026-04-26 19:43 | 37.69478 | -82.09992 | 41086 ft | 516 kts | 81° |
| 2026-04-26 19:44 | 37.70301 | -82.00988 | 41085 ft | 516 kts | 81° |
| 2026-04-26 19:44 | 37.71117 | -81.91994 | 41083 ft | 516 kts | 81° |
| 2026-04-26 19:45 | 37.71928 | -81.82974 | 41084 ft | 516 kts | 81° |
| 2026-04-26 19:45 | 37.72731 | -81.73971 | 41084 ft | 516 kts | 81° |
| 2026-04-26 19:46 | 37.73526 | -81.64974 | 41078 ft | 516 kts | 82° |
| 2026-04-26 19:46 | 37.74316 | -81.55963 | 41081 ft | 517 kts | 82° |
| 2026-04-26 19:47 | 37.74837 | -81.49972 | 41084 ft | 517 kts | 82° |
| 2026-04-26 19:47 | 37.75874 | -81.37939 | 41082 ft | 517 kts | 82° |
| 2026-04-26 19:48 | 37.76644 | -81.28893 | 41084 ft | 517 kts | 82° |
| 2026-04-26 19:48 | 37.77629 | -81.19907 | 41083 ft | 515 kts | 73° |
| 2026-04-26 19:49 | 37.80363 | -81.11657 | 41080 ft | 505 kts | 53° |
| 2026-04-26 19:49 | 37.84988 | -81.05212 | 41075 ft | 495 kts | 33° |
| 2026-04-26 19:50 | 37.90866 | -81.00845 | 41088 ft | 491 kts | 27° |
| 2026-04-26 19:50 | 37.96619 | -80.96127 | 41083 ft | 494 kts | 30° |
| 2026-04-26 19:51 | 38.02339 | -80.91247 | 41077 ft | 494 kts | 30° |
| 2026-04-26 19:51 | 38.08013 | -80.86336 | 41082 ft | 494 kts | 31° |
| 2026-04-26 19:52 | 38.13675 | -80.81405 | 41072 ft | 494 kts | 31° |
| 2026-04-26 19:52 | 38.19174 | -80.76133 | 41075 ft | 498 kts | 40° |
| 2026-04-26 19:53 | 38.23397 | -80.69171 | 41078 ft | 507 kts | 60° |
| 2026-04-26 19:53 | 38.24773 | -80.65020 | 41080 ft | 511 kts | 71° |
| 2026-04-26 19:53 | 38.25528 | -80.60599 | 41080 ft | 513 kts | 83° |
| 2026-04-26 19:54 | 38.25645 | -80.51498 | 41077 ft | 516 kts | 89° |
| 2026-04-26 19:54 | 38.25588 | -80.42382 | 41071 ft | 516 kts | 89° |
| 2026-04-26 19:55 | 38.25544 | -80.33239 | 41076 ft | 516 kts | 89° |
| 2026-04-26 19:55 | 38.25508 | -80.25650 | 41081 ft | 516 kts | 89° |
| 2026-04-26 19:56 | 38.25461 | -80.16512 | 41091 ft | 516 kts | 89° |
| 2026-04-26 19:56 | 38.25408 | -80.07379 | 41094 ft | 516 kts | 89° |
| 2026-04-26 19:57 | 38.25348 | -79.98236 | 41096 ft | 517 kts | 90° |
| 2026-04-26 19:57 | 38.25281 | -79.89104 | 41109 ft | 517 kts | 90° |
| 2026-04-26 19:58 | 38.25207 | -79.79957 | 41104 ft | 517 kts | 90° |
| 2026-04-26 19:58 | 38.25126 | -79.70808 | 41123 ft | 517 kts | 90° |
| 2026-04-26 19:59 | 38.25037 | -79.61658 | 41128 ft | 517 kts | 90° |
| 2026-04-26 19:59 | 38.24942 | -79.52512 | 41129 ft | 517 kts | 90° |
| 2026-04-26 20:00 | 38.24891 | -79.47946 | 40987 ft | 514 kts | 90° |
| 2026-04-26 20:00 | 38.24840 | -79.43403 | 40579 ft | 511 kts | 90° |
| 2026-04-26 20:00 | 38.24786 | -79.38889 | 39942 ft | 510 kts | 90° |
| 2026-04-26 20:00 | 38.24732 | -79.34436 | 39304 ft | 509 kts | 90° |
| 2026-04-26 20:01 | 38.24722 | -79.29933 | 38649 ft | 508 kts | 87° |
| 2026-04-26 20:01 | 38.25137 | -79.25496 | 38070 ft | 504 kts | 76° |
| 2026-04-26 20:01 | 38.26145 | -79.21257 | 37437 ft | 499 kts | 66° |
| 2026-04-26 20:01 | 38.27457 | -79.17178 | 36790 ft | 497 kts | 65° |
| 2026-04-26 20:02 | 38.28803 | -79.13130 | 36112 ft | 495 kts | 65° |
| 2026-04-26 20:02 | 38.30139 | -79.09105 | 35429 ft | 493 kts | 65° |
| 2026-04-26 20:02 | 38.31472 | -79.05069 | 34636 ft | 494 kts | 65° |
| 2026-04-26 20:02 | 38.32355 | -79.02389 | 34056 ft | 496 kts | 65° |
| 2026-04-26 20:03 | 38.34142 | -78.96947 | 32884 ft | 499 kts | 66° |
| 2026-04-26 20:03 | 38.35477 | -78.92871 | 32044 ft | 500 kts | 66° |
| 2026-04-26 20:03 | 38.36815 | -78.88775 | 31150 ft | 501 kts | 65° |
| 2026-04-26 20:03 | 38.38153 | -78.84672 | 30216 ft | 502 kts | 65° |
| 2026-04-26 20:04 | 38.39495 | -78.80554 | 29340 ft | 502 kts | 65° |
| 2026-04-26 20:04 | 38.40827 | -78.76461 | 28635 ft | 498 kts | 65° |
| 2026-04-26 20:04 | 38.42150 | -78.72404 | 27963 ft | 492 kts | 65° |
| 2026-04-26 20:04 | 38.43432 | -78.68452 | 27348 ft | 486 kts | 65° |
| 2026-04-26 20:05 | 38.44665 | -78.64460 | 26714 ft | 481 kts | 69° |
| 2026-04-26 20:05 | 38.45689 | -78.60416 | 26102 ft | 475 kts | 71° |
| 2026-04-26 20:05 | 38.46666 | -78.56421 | 25483 ft | 469 kts | 70° |
| 2026-04-26 20:05 | 38.47648 | -78.52469 | 24854 ft | 463 kts | 70° |
| 2026-04-26 20:06 | 38.48635 | -78.48589 | 24232 ft | 457 kts | 70° |
| 2026-04-26 20:06 | 38.49613 | -78.44751 | 23735 ft | 449 kts | 70° |
| 2026-04-26 20:06 | 38.50561 | -78.41016 | 23450 ft | 436 kts | 70° |
| 2026-04-26 20:06 | 38.51476 | -78.37396 | 23191 ft | 422 kts | 70° |
| 2026-04-26 20:07 | 38.52362 | -78.33879 | 22947 ft | 409 kts | 70° |
| 2026-04-26 20:07 | 38.53221 | -78.30465 | 22593 ft | 400 kts | 69° |
| 2026-04-26 20:07 | 38.54065 | -78.27109 | 22351 ft | 394 kts | 70° |
| 2026-04-26 20:07 | 38.54889 | -78.23775 | 22184 ft | 394 kts | 70° |
| 2026-04-26 20:08 | 38.55705 | -78.20455 | 22165 ft | 386 kts | 70° |
| 2026-04-26 20:08 | 38.56504 | -78.17205 | 22169 ft | 382 kts | 70° |
| 2026-04-26 20:08 | 38.57291 | -78.14006 | 22166 ft | 381 kts | 70° |
| 2026-04-26 20:08 | 38.58065 | -78.10721 | 22053 ft | 382 kts | 71° |
| 2026-04-26 20:09 | 38.58744 | -78.07491 | 21812 ft | 381 kts | 72° |
| 2026-04-26 20:09 | 38.59423 | -78.04215 | 21562 ft | 380 kts | 72° |
| 2026-04-26 20:09 | 38.60104 | -78.00960 | 21314 ft | 378 kts | 72° |
| 2026-04-26 20:09 | 38.60787 | -77.97722 | 21059 ft | 376 kts | 71° |
| 2026-04-26 20:10 | 38.61475 | -77.94500 | 20803 ft | 376 kts | 71° |
| 2026-04-26 20:10 | 38.62164 | -77.91285 | 20573 ft | 375 kts | 71° |
| 2026-04-26 20:10 | 38.62848 | -77.88089 | 20296 ft | 369 kts | 71° |
| 2026-04-26 20:10 | 38.63520 | -77.84942 | 19895 ft | 364 kts | 71° |
| 2026-04-26 20:11 | 38.64180 | -77.81827 | 19424 ft | 362 kts | 72° |
| 2026-04-26 20:11 | 38.64642 | -77.78663 | 19026 ft | 361 kts | 79° |
| 2026-04-26 20:11 | 38.64870 | -77.75434 | 18856 ft | 366 kts | 81° |
| 2026-04-26 20:12 | 38.65257 | -77.68911 | 18468 ft | 366 kts | 82° |
| 2026-04-26 20:12 | 38.65429 | -77.65990 | 18276 ft | 365 kts | 82° |
| 2026-04-26 20:12 | 38.65619 | -77.62753 | 18078 ft | 364 kts | 81° |
| 2026-04-26 20:12 | 38.65811 | -77.59487 | 17876 ft | 363 kts | 81° |
| 2026-04-26 20:13 | 38.65997 | -77.56315 | 17682 ft | 362 kts | 81° |
| 2026-04-26 20:13 | 38.66186 | -77.53105 | 17519 ft | 361 kts | 81° |
| 2026-04-26 20:13 | 38.66390 | -77.49804 | 17397 ft | 387 kts | 81° |
| 2026-04-26 20:13 | 38.66606 | -77.46249 | 17316 ft | 410 kts | 82° |
| 2026-04-26 20:14 | 38.66820 | -77.42577 | 17166 ft | 415 kts | 82° |
| 2026-04-26 20:14 | 38.67030 | -77.38883 | 16909 ft | 415 kts | 82° |
| 2026-04-26 20:14 | 38.67238 | -77.35214 | 16659 ft | 413 kts | 82° |
| 2026-04-26 20:14 | 38.67447 | -77.31541 | 16409 ft | 412 kts | 82° |
| 2026-04-26 20:15 | 38.67654 | -77.27885 | 16153 ft | 410 kts | 82° |
| 2026-04-26 20:15 | 38.67858 | -77.24260 | 15586 ft | 406 kts | 82° |
| 2026-04-26 20:15 | 38.68059 | -77.20685 | 14869 ft | 402 kts | 82° |
| 2026-04-26 20:15 | 38.68259 | -77.17135 | 14126 ft | 398 kts | 83° |
| 2026-04-26 20:16 | 38.68456 | -77.13621 | 13480 ft | 393 kts | 83° |
| 2026-04-26 20:16 | 38.68649 | -77.10157 | 13208 ft | 389 kts | 83° |
| 2026-04-26 20:16 | 38.68840 | -77.06729 | 12388 ft | 387 kts | 83° |
| 2026-04-26 20:16 | 38.69030 | -77.03282 | 11440 ft | 389 kts | 83° |
| 2026-04-26 20:17 | 38.69266 | -76.99891 | 10832 ft | 381 kts | 79° |
| 2026-04-26 20:17 | 38.69890 | -76.96724 | 10814 ft | 353 kts | 67° |
| 2026-04-26 20:17 | 38.70942 | -76.93991 | 10641 ft | 334 kts | 56° |
| 2026-04-26 20:17 | 38.71780 | -76.92331 | 10487 ft | 324 kts | 54° |
| 2026-04-26 20:18 | 38.73442 | -76.89246 | 10167 ft | 302 kts | 53° |
| 2026-04-26 20:18 | 38.74607 | -76.87123 | 9566 ft | 290 kts | 52° |
| 2026-04-26 20:18 | 38.75749 | -76.85056 | 9033 ft | 278 kts | 53° |
| 2026-04-26 20:18 | 38.76867 | -76.83041 | 8655 ft | 280 kts | 52° |
| 2026-04-26 20:19 | 38.77992 | -76.81019 | 8295 ft | 278 kts | 52° |
| 2026-04-26 20:19 | 38.79109 | -76.79014 | 7940 ft | 274 kts | 52° |
| 2026-04-26 20:19 | 38.80206 | -76.77041 | 7600 ft | 270 kts | 53° |
| 2026-04-26 20:19 | 38.81291 | -76.75089 | 7266 ft | 267 kts | 52° |
| 2026-04-26 20:20 | 38.82360 | -76.73159 | 6944 ft | 265 kts | 53° |
| 2026-04-26 20:20 | 38.83425 | -76.71236 | 6614 ft | 263 kts | 53° |
| 2026-04-26 20:20 | 38.84480 | -76.69339 | 6325 ft | 258 kts | 52° |
| 2026-04-26 20:20 | 38.85495 | -76.67512 | 6193 ft | 245 kts | 52° |
| 2026-04-26 20:21 | 38.86456 | -76.65779 | 6073 ft | 232 kts | 52° |
| 2026-04-26 20:21 | 38.87368 | -76.64131 | 5968 ft | 220 kts | 52° |
| 2026-04-26 20:21 | 38.88238 | -76.62558 | 5846 ft | 213 kts | 52° |
| 2026-04-26 20:21 | 38.89092 | -76.61045 | 5647 ft | 211 kts | 51° |
| 2026-04-26 20:22 | 38.90055 | -76.59631 | 5413 ft | 210 kts | 43° |
| 2026-04-26 20:22 | 38.91177 | -76.58448 | 5187 ft | 209 kts | 33° |
| 2026-04-26 20:22 | 38.92438 | -76.57550 | 5021 ft | 207 kts | 24° |
| 2026-04-26 20:22 | 38.93801 | -76.56946 | 4999 ft | 208 kts | 15° |
| 2026-04-26 20:23 | 38.95224 | -76.56651 | 4910 ft | 206 kts | 6° |
| 2026-04-26 20:23 | 38.96652 | -76.56641 | 4599 ft | 206 kts | 0° |
| 2026-04-26 20:23 | 38.98088 | -76.56734 | 4287 ft | 205 kts | 359° |
| 2026-04-26 20:23 | 38.99499 | -76.56835 | 3807 ft | 203 kts | 359° |
| 2026-04-26 20:24 | 39.00919 | -76.56931 | 3271 ft | 204 kts | 359° |
| 2026-04-26 20:24 | 39.02330 | -76.57016 | 2782 ft | 202 kts | 359° |
| 2026-04-26 20:24 | 39.03732 | -76.57103 | 2318 ft | 201 kts | 358° |
| 2026-04-26 20:24 | 39.05073 | -76.57263 | 2114 ft | 185 kts | 353° |
| 2026-04-26 20:25 | 39.06239 | -76.57594 | 1966 ft | 163 kts | 346° |
| 2026-04-26 20:25 | 39.06937 | -76.57905 | 1857 ft | 152 kts | 341° |
| 2026-04-26 20:25 | 39.08150 | -76.58698 | 1591 ft | 141 kts | 330° |
| 2026-04-26 20:25 | 39.08938 | -76.59371 | 1391 ft | 134 kts | 328° |
| 2026-04-26 20:26 | 39.09687 | -76.60039 | 1188 ft | 128 kts | 328° |
| 2026-04-26 20:26 | 39.10419 | -76.60684 | 1026 ft | 126 kts | 329° |
| 2026-04-26 20:26 | 39.11132 | -76.61348 | 1008 ft | 128 kts | 327° |
| 2026-04-26 20:26 | 39.11857 | -76.62020 | 1002 ft | 129 kts | 327° |
| 2026-04-26 20:27 | 39.12587 | -76.62691 | 1000 ft | 129 kts | 327° |
| 2026-04-26 20:27 | 39.13319 | -76.63368 | 951 ft | 130 kts | 327° |
| 2026-04-26 20:27 | 39.14055 | -76.64050 | 784 ft | 130 kts | 327° |
| 2026-04-26 20:27 | 39.14786 | -76.64728 | 626 ft | 129 kts | 327° |
| 2026-04-26 20:28 | 39.15510 | -76.65400 | 431 ft | 126 kts | 329° |
| 2026-04-26 20:28 | 39.16219 | -76.66056 | 278 ft | 126 kts | 327° |
| 2026-04-26 20:28 | 39.16930 | -76.66715 | 170 ft | 121 kts | 322° |
| 2026-04-26 20:28 | 39.17529 | -76.67272 | 153 ft | 77 kts | 324° |
| 2026-04-26 20:29 | 39.17743 | -76.67461 | 151 ft | 18 kts | 332° |
| 2026-04-26 20:29 | 39.17833 | -76.67450 | 151 ft | 0 kts | 42° |
| 2026-04-26 20:30 | 39.17842 | -76.67421 | 153 ft | 8 kts | 76° |
| 2026-04-26 20:30 | 39.17808 | -76.67353 | 156 ft | 15 kts | 140° |
| 2026-04-26 20:30 | 39.17686 | -76.67230 | 157 ft | 29 kts | 142° |
| 2026-04-26 20:31 | 39.17527 | -76.67078 | 159 ft | 28 kts | 132° |
| 2026-04-26 20:31 | 39.17464 | -76.66858 | 161 ft | 26 kts | 93° |
| 2026-04-26 20:31 | 39.17451 | -76.66630 | 160 ft | 26 kts | 93° |
| 2026-04-26 20:31 | 39.17518 | -76.66440 | 160 ft | 24 kts | 36° |
| 2026-04-26 20:32 | 39.17657 | -76.66320 | 161 ft | 24 kts | 34° |
| 2026-04-26 20:32 | 39.17796 | -76.66206 | 161 ft | 24 kts | 31° |
| 2026-04-26 20:32 | 39.17933 | -76.66089 | 160 ft | 24 kts | 34° |
| 2026-04-26 20:32 | 39.18043 | -76.66043 | 160 ft | 8 kts | 329° |
| 2026-04-26 20:33 | 39.18091 | -76.66085 | 161 ft | 9 kts | 325° |
| 2026-04-26 20:33 | 39.18145 | -76.66135 | 162 ft | 11 kts | 322° |
| 2026-04-26 20:33 | 39.18215 | -76.66193 | 162 ft | 12 kts | 329° |
| 2026-04-26 20:33 | 39.18283 | -76.66266 | 162 ft | 13 kts | 322° |
| 2026-04-26 20:34 | 39.18328 | -76.66367 | 162 ft | 14 kts | 263° |
| 2026-04-26 20:34 | 39.18273 | -76.66482 | 162 ft | 17 kts | 235° |
| 2026-04-26 20:34 | 39.18204 | -76.66609 | 162 ft | 7 kts | 235° |
| 2026-04-26 20:34 | 39.18203 | -76.66612 | 162 ft | 0 kts | 235° |
| 2026-04-26 20:35 | 39.18174 | -76.66665 | 162 ft | 11 kts | 235° |
| 2026-04-26 20:35 | 39.18156 | -76.66698 | 162 ft | 12 kts | 234° |
| 2026-04-26 20:35 | 39.18152 | -76.66704 | 162 ft | 0 kts | 232° |